Archival Weather

Aeroparque Jorge Newbery

Buenos Aires, Argentina (SABE)

Report from: Thursday, February 22, 2024 9:00 AM -03
Current time: Monday, June 24, 2024 8:26 AM -03

Current weather – Weather history – Daily summaries
Weather forecast

Temperature25.0°C (77.0°F)
Dew point20.0°C (68.0°F)
Winds 7 kts (3.6 m/s, 8.1 mph) Vrb
Winds variableWinds variable from West-Northwest (290°) to North-Northeast (20°)
Clouds Sky clear
Altimeter29.77 in.Hg (1008 mB)
Relative humidity74 %
Density altitude1,652 ft. (503 m)
Remarks Ceiling and visibility OK
Corrected report
No significant changes expected in the next two hours
Flight conditions Visual Meteorological Conditions
Raw dataCOR SABE 221200Z 36007KT 290V020 CAVOK 25/20 Q1008 NOSIG
An error has occurred. This application may no longer respond until reloaded. Reload 🗙